Terminal Aerodrome Forecast
Issued by NWS

Home | Current Version | Previous Version | Graphics & Text | Print | Product List | Glossary On
Versions: 1 2 3 4 5 6 7 8 9 10 11 12 13 14 15 16 17 18 19
000
FTUS43 KGRB 070500
TAFCWA
TAF
KCWA 070520Z 0706/0806 14006KT 6SM BR BKN090 WS015/20035KT
     FM071500 18016G25KT P6SM SCT040 BKN150
     FM072100 19016G25KT 4SM -SHRA BKN040 OVC070
     FM080100 19010KT P6SM OVC040
      AMD LTD TO CLD VIS AND WIND TIL 071200=

USA.gov is the U.S. government's official web portal to all federal, state and local government web resources and services.